createdAt,value
2023-04-26T00:02:02.248Z,4.20
2023-04-26T00:04:29.391Z,4.15
2023-04-26T00:06:56.605Z,4.78
2023-04-26T00:09:23.424Z,4.45
2023-04-26T00:11:50.226Z,4.35
2023-04-26T00:14:17.111Z,4.10
2023-04-26T00:16:44.100Z,4.45
2023-04-26T00:19:12.416Z,4.10
2023-04-26T00:21:39.953Z,3.83
2023-04-26T00:24:07.140Z,3.38
2023-04-26T00:26:34.937Z,3.65
2023-04-26T00:29:02.995Z,3.40
2023-04-26T00:31:29.808Z,3.58
2023-04-26T00:33:56.680Z,3.10
2023-04-26T00:36:23.463Z,3.00
2023-04-26T00:38:50.578Z,3.50
2023-04-26T00:41:17.775Z,3.17
2023-04-26T00:43:45.249Z,3.17
2023-04-26T00:46:12.622Z,3.25
2023-04-26T00:48:39.624Z,3.40
2023-04-26T00:51:06.913Z,3.20
2023-04-26T00:53:36.934Z,3.10
2023-04-26T00:56:06.687Z,3.15
2023-04-26T00:58:33.771Z,2.72
2023-04-26T01:01:00.601Z,3.00
2023-04-26T01:03:28.349Z,2.83
2023-04-26T01:05:55.401Z,2.75
2023-04-26T01:08:23.492Z,2.80
2023-04-26T01:10:52.043Z,2.90
2023-04-26T01:13:19.374Z,2.80
2023-04-26T01:15:46.620Z,3.20
2023-04-26T01:18:14.953Z,2.67
2023-04-26T01:20:43.109Z,2.50
2023-04-26T01:23:11.600Z,2.40
2023-04-26T01:25:38.600Z,2.67
2023-04-26T01:28:05.697Z,2.70
2023-04-26T01:30:32.459Z,2.60
2023-04-26T01:32:59.256Z,2.60
2023-04-26T01:35:26.321Z,3.08
2023-04-26T01:37:53.133Z,2.90
2023-04-26T01:40:19.923Z,3.03
2023-04-26T01:42:46.708Z,2.88
2023-04-26T01:45:13.491Z,2.85
2023-04-26T01:47:40.410Z,2.40
2023-04-26T01:50:08.042Z,2.22
2023-04-26T01:52:34.772Z,2.55
2023-04-26T01:55:01.681Z,2.30
2023-04-26T01:57:28.508Z,2.25
2023-04-26T01:59:56.790Z,2.50
2023-04-26T02:02:23.627Z,2.28
2023-04-26T02:04:50.985Z,2.28
2023-04-26T02:07:17.838Z,2.20
2023-04-26T02:09:46.529Z,2.30
2023-04-26T02:12:13.312Z,2.47
2023-04-26T02:14:40.152Z,2.40
2023-04-26T02:17:07.047Z,2.70
2023-04-26T02:19:33.825Z,2.30
2023-04-26T02:22:00.648Z,2.50
2023-04-26T02:24:27.516Z,2.65
2023-04-26T02:26:54.795Z,2.67
2023-04-26T02:29:32.681Z,2.60
2023-04-26T02:32:07.692Z,2.60
2023-04-26T02:34:34.825Z,2.40
2023-04-26T02:37:02.029Z,2.70
2023-04-26T02:39:28.836Z,2.75
2023-04-26T02:41:55.883Z,2.70
2023-04-26T02:44:22.640Z,2.55
2023-04-26T02:46:49.495Z,2.50
2023-04-26T02:49:16.602Z,2.58
2023-04-26T02:51:43.449Z,2.67
2023-04-26T02:54:10.260Z,2.60
2023-04-26T02:56:37.020Z,2.38
2023-04-26T02:59:03.825Z,2.50
2023-04-26T03:01:30.910Z,3.10
2023-04-26T03:03:57.924Z,3.15
2023-04-26T03:06:24.997Z,2.83
2023-04-26T03:09:10.589Z,2.78
2023-04-26T03:11:37.374Z,2.60
2023-04-26T03:14:04.170Z,2.60
2023-04-26T03:16:31.866Z,2.80
2023-04-26T03:18:58.663Z,2.58
2023-04-26T03:21:25.622Z,2.88
2023-04-26T03:23:52.454Z,2.40
2023-04-26T03:26:19.729Z,2.30
2023-04-26T03:28:46.527Z,2.20
2023-04-26T03:31:13.300Z,2.05
2023-04-26T03:33:40.061Z,1.90
2023-04-26T03:36:07.120Z,2.28
2023-04-26T03:38:33.872Z,2.00
2023-04-26T03:41:00.706Z,2.03
2023-04-26T03:43:27.435Z,1.90
2023-04-26T03:45:54.293Z,2.10
2023-04-26T03:48:21.252Z,2.10
2023-04-26T03:50:47.999Z,2.20
2023-04-26T03:53:14.750Z,2.00
2023-04-26T03:55:42.369Z,2.05
2023-04-26T03:58:09.350Z,2.00
2023-04-26T04:00:39.296Z,2.13
2023-04-26T04:03:07.230Z,2.20
2023-04-26T04:05:34.309Z,2.30
2023-04-26T04:08:01.964Z,1.88
2023-04-26T04:10:29.277Z,2.10
2023-04-26T04:12:56.150Z,2.40
2023-04-26T04:15:23.698Z,2.13
2023-04-26T04:17:50.889Z,2.15
2023-04-26T04:20:18.015Z,2.20
2023-04-26T04:22:44.787Z,2.00
2023-04-26T04:25:11.872Z,2.00
2023-04-26T04:27:38.841Z,1.80
2023-04-26T04:30:07.799Z,1.88
2023-04-26T04:32:39.460Z,2.20
2023-04-26T04:35:07.497Z,2.17
2023-04-26T04:37:34.910Z,2.08
2023-04-26T04:40:01.777Z,1.98
2023-04-26T04:42:29.014Z,1.80
2023-04-26T04:44:57.000Z,1.85
2023-04-26T04:47:24.364Z,2.03
2023-04-26T04:49:52.009Z,1.80
2023-04-26T04:52:21.438Z,1.88
2023-04-26T04:54:48.657Z,2.00
2023-04-26T04:57:16.802Z,1.77
2023-04-26T04:59:43.733Z,1.80
2023-04-26T05:02:10.708Z,1.92
2023-04-26T05:04:37.816Z,2.08
2023-04-26T05:07:05.847Z,2.10
2023-04-26T05:09:32.586Z,2.38
2023-04-26T05:11:59.422Z,2.10
2023-04-26T05:14:26.390Z,2.00
2023-04-26T05:16:53.225Z,1.65
2023-04-26T05:19:20.025Z,1.98
2023-04-26T05:21:46.853Z,2.03
2023-04-26T05:24:13.649Z,1.90
2023-04-26T05:26:40.706Z,1.90
2023-04-26T05:29:07.541Z,2.00
2023-04-26T05:31:34.452Z,1.85
2023-04-26T05:34:03.849Z,2.65
2023-04-26T05:36:30.626Z,3.08
2023-04-26T05:38:57.473Z,3.05
2023-04-26T05:41:24.339Z,3.17
2023-04-26T05:43:51.266Z,3.75
2023-04-26T05:46:18.353Z,3.55
2023-04-26T05:48:45.292Z,3.45
2023-04-26T05:51:12.040Z,2.80
2023-04-26T05:53:38.844Z,2.60
2023-04-26T05:56:07.122Z,2.42
2023-04-26T05:58:33.957Z,2.50
2023-04-26T06:01:00.856Z,2.83
2023-04-26T06:03:27.757Z,2.95
2023-04-26T06:05:54.793Z,2.45
2023-04-26T06:08:21.565Z,2.60
2023-04-26T06:10:48.440Z,2.88
2023-04-26T06:13:15.193Z,2.80
2023-04-26T06:15:42.038Z,3.22
2023-04-26T06:18:09.009Z,3.38
2023-04-26T06:20:36.214Z,3.13
2023-04-26T06:23:03.163Z,3.15
2023-04-26T06:25:29.961Z,3.50
2023-04-26T06:27:58.698Z,3.30
2023-04-26T06:30:25.490Z,3.50
2023-04-26T06:32:52.359Z,3.30
2023-04-26T06:35:19.193Z,3.40
2023-04-26T06:37:46.528Z,3.65
2023-04-26T06:40:15.914Z,3.42
2023-04-26T06:42:43.458Z,4.35
2023-04-26T06:45:11.665Z,4.40
2023-04-26T06:47:38.790Z,3.53
2023-04-26T06:50:06.338Z,3.53
2023-04-26T06:52:33.179Z,3.55
2023-04-26T06:55:03.967Z,3.63
2023-04-26T06:57:30.819Z,3.67
2023-04-26T06:59:58.332Z,3.33
2023-04-26T07:02:25.328Z,3.22
2023-04-26T07:04:52.890Z,2.72
2023-04-26T07:07:19.908Z,3.00
2023-04-26T07:09:46.640Z,3.00
2023-04-26T07:12:14.114Z,2.97
2023-04-26T07:14:43.257Z,3.10
2023-04-26T07:17:11.088Z,2.95
2023-04-26T07:19:38.068Z,2.47
2023-04-26T07:22:04.961Z,2.92
2023-04-26T07:24:31.734Z,2.00
2023-04-26T07:26:58.582Z,1.95
2023-04-26T07:29:25.526Z,2.13
2023-04-26T07:31:52.809Z,2.50
2023-04-26T07:34:19.792Z,2.20
2023-04-26T07:36:47.839Z,2.20
2023-04-26T07:39:15.517Z,2.40
2023-04-26T07:41:43.906Z,2.33
2023-04-26T07:44:11.550Z,2.30
2023-04-26T07:46:38.442Z,2.47
2023-04-26T07:49:05.227Z,2.45
2023-04-26T07:51:32.057Z,2.17
2023-04-26T07:53:58.925Z,2.05
2023-04-26T07:56:25.843Z,1.90
2023-04-26T07:58:52.644Z,2.10
2023-04-26T08:01:19.393Z,2.33
2023-04-26T08:03:47.687Z,1.90
2023-04-26T08:06:14.905Z,1.70
2023-04-26T08:08:45.202Z,1.95
2023-04-26T08:11:12.313Z,1.90
2023-04-26T08:13:39.129Z,1.67
2023-04-26T08:16:06.578Z,2.13
2023-04-26T08:18:33.818Z,2.20
2023-04-26T08:21:00.811Z,2.20
2023-04-26T08:23:28.416Z,2.03
2023-04-26T08:25:55.433Z,2.42
2023-04-26T08:28:22.277Z,2.10
2023-04-26T08:30:49.117Z,1.88
2023-04-26T08:33:18.204Z,1.95
2023-04-26T08:35:45.857Z,1.85
2023-04-26T08:38:12.646Z,1.70
2023-04-26T08:40:41.752Z,1.60
2023-04-26T08:43:10.909Z,1.30
2023-04-26T08:45:40.897Z,1.73
2023-04-26T08:48:15.259Z,1.60
2023-04-26T08:50:45.414Z,1.35
2023-04-26T08:53:15.830Z,1.33
2023-04-26T08:55:47.644Z,1.50
2023-04-26T08:58:15.845Z,1.63
2023-04-26T09:00:46.268Z,1.73
2023-04-26T09:03:15.219Z,1.92
2023-04-26T09:05:45.750Z,1.60
2023-04-26T09:08:19.653Z,1.50
2023-04-26T09:10:46.683Z,1.60
2023-04-26T09:13:14.519Z,1.92
2023-04-26T09:15:41.969Z,1.88
2023-04-26T09:18:20.395Z,2.08
2023-04-26T09:21:05.907Z,2.60
2023-04-26T09:23:33.409Z,2.50
2023-04-26T09:26:21.776Z,2.63
2023-04-26T09:28:49.131Z,2.38
2023-04-26T09:31:38.464Z,2.63
2023-04-26T09:34:05.739Z,2.03
2023-04-26T09:36:32.487Z,2.30
2023-04-26T09:38:59.744Z,2.50
2023-04-26T09:41:45.438Z,2.08
2023-04-26T09:44:23.246Z,2.30
2023-04-26T09:47:05.091Z,1.85
2023-04-26T09:49:48.889Z,2.30
2023-04-26T09:52:16.529Z,2.75
2023-04-26T09:54:53.945Z,2.20
2023-04-26T09:57:24.734Z,2.00
2023-04-26T09:59:55.245Z,2.10
2023-04-26T10:02:24.892Z,1.92
2023-04-26T10:04:56.656Z,1.40
2023-04-26T10:07:25.626Z,1.25
2023-04-26T10:09:53.443Z,1.45
2023-04-26T10:12:20.732Z,1.60
2023-04-26T10:14:48.429Z,1.90
2023-04-26T10:17:15.210Z,2.00
2023-04-26T10:19:46.645Z,2.10
2023-04-26T10:22:25.436Z,1.67
2023-04-26T10:24:54.528Z,1.70
2023-04-26T10:27:46.896Z,1.60
2023-04-26T10:30:15.283Z,1.77
2023-04-26T10:32:57.456Z,2.20
2023-04-26T10:35:28.430Z,2.00
2023-04-26T10:38:01.584Z,1.60
2023-04-26T10:40:31.618Z,2.00
2023-04-26T10:43:16.304Z,2.20
2023-04-26T10:45:47.652Z,1.77
2023-04-26T10:48:30.869Z,1.95
2023-04-26T10:51:17.998Z,1.30
2023-04-26T10:53:44.732Z,1.52
2023-04-26T10:56:24.149Z,1.50
2023-04-26T10:59:18.026Z,1.70
2023-04-26T11:01:55.605Z,1.50
2023-04-26T11:04:22.737Z,1.77
2023-04-26T11:06:51.186Z,1.73
2023-04-26T11:09:41.377Z,1.55
2023-04-26T11:12:12.538Z,1.30
2023-04-26T11:14:41.717Z,1.25
2023-04-26T11:17:09.546Z,1.20
2023-04-26T11:19:36.320Z,1.23
2023-04-26T11:22:06.573Z,1.20
2023-04-26T11:24:39.097Z,1.40
2023-04-26T11:27:10.391Z,1.90
2023-04-26T11:29:38.105Z,1.35
2023-04-26T11:32:05.728Z,1.50
2023-04-26T11:34:38.267Z,1.33
2023-04-26T11:37:06.822Z,1.30
2023-04-26T11:39:37.487Z,1.40
2023-04-26T11:42:13.697Z,1.60
2023-04-26T11:44:41.271Z,1.42
2023-04-26T11:47:08.651Z,1.25
2023-04-26T11:49:38.891Z,1.27
2023-04-26T11:52:08.213Z,1.70
2023-04-26T11:54:37.712Z,1.55
2023-04-26T11:57:17.246Z,1.40
2023-04-26T11:59:44.997Z,1.55
2023-04-26T12:02:12.525Z,1.63
2023-04-26T12:04:40.985Z,1.88
2023-04-26T12:07:08.602Z,1.60
2023-04-26T12:09:36.766Z,1.60
2023-04-26T12:12:06.496Z,1.40
2023-04-26T12:14:38.251Z,1.50
2023-04-26T12:17:07.026Z,1.67
2023-04-26T12:19:38.287Z,1.33
2023-04-26T12:22:08.994Z,1.42
2023-04-26T12:24:39.167Z,1.27
2023-04-26T12:27:07.141Z,1.30
2023-04-26T12:29:34.921Z,1.20
2023-04-26T12:32:04.497Z,1.33
2023-04-26T12:34:31.408Z,1.50
2023-04-26T12:36:58.203Z,1.00
2023-04-26T12:39:24.946Z,1.30
2023-04-26T12:41:51.837Z,0.98
2023-04-26T12:44:21.221Z,1.08
2023-04-26T12:46:49.270Z,0.90
2023-04-26T12:49:16.149Z,1.15
2023-04-26T12:51:42.932Z,0.80
2023-04-26T12:54:09.713Z,0.95
2023-04-26T12:56:40.708Z,1.17
2023-04-26T12:59:07.585Z,0.77
2023-04-26T13:01:34.369Z,0.85
2023-04-26T13:04:03.658Z,0.75
2023-04-26T13:06:30.955Z,0.98
2023-04-26T13:08:57.772Z,0.60
2023-04-26T13:11:24.544Z,0.88
2023-04-26T13:13:51.346Z,0.90
2023-04-26T13:16:18.233Z,0.73
2023-04-26T13:18:46.380Z,1.00
2023-04-26T13:21:13.312Z,0.98
2023-04-26T13:23:40.092Z,0.80
2023-04-26T13:26:07.455Z,0.80
2023-04-26T13:28:36.274Z,1.20
2023-04-26T13:31:03.303Z,0.82
2023-04-26T13:33:30.400Z,1.05
2023-04-26T13:35:57.240Z,0.70
2023-04-26T13:38:24.272Z,1.00
2023-04-26T13:40:51.918Z,1.10
2023-04-26T13:43:19.085Z,0.80
2023-04-26T13:45:46.194Z,0.70
2023-04-26T13:48:13.282Z,1.00
2023-04-26T13:50:40.300Z,0.90
2023-04-26T13:53:07.471Z,0.80
2023-04-26T13:55:34.335Z,0.70
2023-04-26T13:58:01.205Z,0.90
2023-04-26T14:00:28.026Z,0.98
2023-04-26T14:02:55.005Z,0.93
2023-04-26T14:05:22.926Z,1.10
2023-04-26T14:07:49.903Z,1.00
2023-04-26T14:10:16.776Z,1.00
2023-04-26T14:12:43.637Z,0.82
2023-04-26T14:15:10.859Z,0.90
2023-04-26T14:17:37.711Z,1.00
2023-04-26T14:20:05.799Z,0.75
2023-04-26T14:22:32.715Z,0.95
2023-04-26T14:24:59.828Z,0.80
2023-04-26T14:27:26.980Z,0.70
2023-04-26T14:29:53.811Z,0.90
2023-04-26T14:32:20.680Z,0.75
2023-04-26T14:34:47.485Z,1.35
2023-04-26T14:37:15.070Z,0.65
2023-04-26T14:39:42.019Z,0.90
2023-04-26T14:42:08.836Z,0.80
2023-04-26T14:44:36.483Z,1.00
2023-04-26T14:47:03.270Z,0.93
2023-04-26T14:49:30.036Z,1.00
2023-04-26T14:51:56.843Z,0.90
2023-04-26T14:54:23.612Z,1.05
2023-04-26T14:56:51.486Z,0.73
2023-04-26T14:59:18.293Z,0.90
2023-04-26T15:01:45.172Z,0.88
2023-04-26T15:04:12.189Z,0.93
2023-04-26T15:06:39.194Z,0.75
2023-04-26T15:09:08.729Z,0.90
2023-04-26T15:11:35.803Z,0.88
2023-04-26T15:14:02.604Z,1.20
2023-04-26T15:16:29.424Z,1.20
2023-04-26T15:18:56.516Z,0.90
2023-04-26T15:21:23.328Z,0.75
2023-04-26T15:23:50.106Z,0.95
2023-04-26T15:26:17.080Z,1.23
2023-04-26T15:28:43.858Z,0.93
2023-04-26T15:31:11.493Z,0.80
2023-04-26T15:33:38.386Z,0.90
2023-04-26T15:36:05.593Z,0.80
2023-04-26T15:38:34.891Z,0.85
2023-04-26T15:41:02.184Z,0.95
2023-04-26T15:43:29.133Z,1.10
2023-04-26T15:45:56.259Z,1.10
2023-04-26T15:48:23.129Z,1.25
2023-04-26T15:50:53.817Z,0.95
2023-04-26T15:53:21.912Z,0.85
2023-04-26T15:55:48.831Z,1.05
2023-04-26T15:58:15.643Z,0.60
2023-04-26T16:00:42.598Z,0.90
2023-04-26T16:03:09.746Z,0.82
2023-04-26T16:05:36.888Z,0.80
2023-04-26T16:08:03.966Z,0.80
2023-04-26T16:10:30.742Z,1.02
2023-04-26T16:12:57.860Z,2.80
2023-04-26T16:15:24.613Z,1.08
2023-04-26T16:17:51.452Z,1.02
2023-04-26T16:20:18.245Z,0.80
2023-04-26T16:22:45.424Z,1.05
2023-04-26T16:25:12.360Z,0.75
2023-04-26T16:27:39.174Z,0.93
2023-04-26T16:30:07.585Z,0.90
2023-04-26T16:32:34.501Z,1.05
2023-04-26T16:35:01.511Z,0.80
2023-04-26T16:37:28.329Z,0.80
2023-04-26T16:39:58.452Z,1.15
2023-04-26T16:42:25.187Z,0.90
2023-04-26T16:44:52.279Z,1.33
2023-04-26T16:47:19.067Z,1.13
2023-04-26T16:49:46.455Z,1.10
2023-04-26T16:52:13.259Z,1.00
2023-04-26T16:54:40.049Z,0.98
2023-04-26T16:57:07.167Z,1.10
2023-04-26T16:59:34.005Z,1.23
2023-04-26T17:02:01.070Z,1.20
2023-04-26T17:04:28.420Z,1.20
2023-04-26T17:06:55.478Z,1.20
2023-04-26T17:09:22.410Z,0.90
2023-04-26T17:11:50.015Z,1.25
2023-04-26T17:14:16.966Z,1.23
2023-04-26T17:16:44.202Z,1.20
2023-04-26T17:19:11.152Z,1.10
2023-04-26T17:21:38.016Z,1.20
2023-04-26T17:24:05.659Z,1.10
2023-04-26T17:26:32.522Z,1.20
2023-04-26T17:28:59.618Z,1.52
2023-04-26T17:31:26.600Z,1.35
2023-04-26T17:33:53.377Z,1.30
2023-04-26T17:36:20.816Z,1.17
2023-04-26T17:38:48.551Z,1.30
2023-04-26T17:41:18.601Z,1.33
2023-04-26T17:43:46.003Z,1.45
2023-04-26T17:46:13.205Z,1.60
2023-04-26T17:48:40.664Z,1.35
2023-04-26T17:51:07.613Z,1.20
2023-04-26T17:53:34.499Z,1.05
2023-04-26T17:56:02.574Z,1.50
2023-04-26T17:58:29.366Z,1.55
2023-04-26T18:00:56.228Z,1.20
2023-04-26T18:03:23.504Z,1.70
2023-04-26T18:05:50.707Z,1.45
2023-04-26T18:08:17.544Z,1.50
2023-04-26T18:10:44.883Z,1.83
2023-04-26T18:13:12.499Z,1.90
2023-04-26T18:15:39.354Z,1.80
2023-04-26T18:18:08.255Z,2.05
2023-04-26T18:20:36.865Z,1.70
2023-04-26T18:23:04.079Z,1.38
2023-04-26T18:25:30.934Z,1.35
2023-04-26T18:27:57.727Z,1.50
2023-04-26T18:30:24.613Z,1.17
2023-04-26T18:32:53.128Z,1.50
2023-04-26T18:35:20.234Z,1.40
2023-04-26T18:37:48.094Z,1.50
2023-04-26T18:40:15.198Z,1.27
2023-04-26T18:42:42.166Z,1.70
2023-04-26T18:45:09.556Z,1.65
2023-04-26T18:47:36.474Z,1.52
2023-04-26T18:50:03.601Z,1.38
2023-04-26T18:52:30.427Z,1.38
2023-04-26T18:54:57.421Z,1.20
2023-04-26T18:57:26.939Z,1.55
2023-04-26T18:59:56.578Z,1.40
2023-04-26T19:02:24.757Z,1.60
2023-04-26T19:04:51.754Z,1.60
2023-04-26T19:07:18.724Z,1.50
2023-04-26T19:09:53.590Z,1.60
2023-04-26T19:12:21.728Z,1.92
2023-04-26T19:14:48.741Z,1.55
2023-04-26T19:17:15.547Z,1.73
2023-04-26T19:19:42.473Z,1.40
2023-04-26T19:22:09.307Z,1.70
2023-04-26T19:37:18.954Z,1.40
2023-04-26T19:39:45.786Z,1.60
2023-04-26T19:42:12.648Z,1.80
2023-04-26T19:44:40.029Z,1.60
2023-04-26T19:47:07.071Z,1.70
2023-04-26T19:49:35.131Z,1.77
2023-04-26T19:52:02.480Z,1.50
2023-04-26T19:54:30.503Z,1.30
2023-04-26T19:56:57.422Z,1.40
2023-04-26T19:59:24.253Z,1.30
2023-04-26T20:01:53.760Z,1.20
2023-04-26T20:04:21.421Z,1.38
2023-04-26T20:06:48.494Z,1.55
2023-04-26T20:09:15.318Z,1.55
2023-04-26T20:11:42.677Z,1.45
2023-04-26T20:14:09.751Z,1.63
2023-04-26T20:16:36.597Z,1.60
2023-04-26T20:19:03.486Z,1.50
2023-04-26T20:21:30.260Z,1.58
2023-04-26T20:23:57.211Z,1.27
2023-04-26T20:26:24.117Z,1.40
2023-04-26T20:28:50.900Z,1.65
2023-04-26T20:31:17.674Z,1.70
2023-04-26T20:33:44.398Z,1.50
2023-04-26T20:36:11.502Z,1.60
2023-04-26T20:38:39.057Z,1.60
2023-04-26T20:41:05.901Z,1.70
2023-04-26T20:43:33.107Z,1.50
2023-04-26T20:46:00.064Z,1.60
2023-04-26T20:48:27.005Z,1.58
2023-04-26T20:50:55.082Z,1.50
2023-04-26T20:53:22.106Z,1.60
2023-04-26T20:55:52.269Z,1.60
2023-04-26T20:58:19.286Z,1.38
2023-04-26T21:00:49.705Z,1.50
2023-04-26T21:03:16.664Z,1.58
2023-04-26T21:05:43.667Z,1.60
2023-04-26T21:08:10.583Z,1.45
2023-04-26T21:10:37.276Z,1.52
2023-04-26T21:13:04.191Z,1.40
2023-04-26T21:15:31.034Z,1.75
2023-04-26T21:17:57.821Z,1.70
2023-04-26T21:20:27.390Z,1.70
2023-04-26T21:22:54.213Z,1.42
2023-04-26T21:25:21.709Z,1.58
2023-04-26T21:27:50.876Z,1.60
2023-04-26T21:30:17.897Z,2.35
2023-04-26T21:32:44.778Z,1.60
2023-04-26T21:35:11.781Z,1.40
2023-04-26T21:37:39.011Z,1.40
2023-04-26T21:40:06.838Z,1.42
2023-04-26T21:42:33.872Z,1.55
2023-04-26T21:45:00.829Z,1.50
2023-04-26T21:47:27.718Z,1.30
2023-04-26T21:49:54.567Z,1.30
2023-04-26T21:52:21.293Z,1.70
2023-04-26T21:54:48.187Z,1.52
2023-04-26T21:57:15.104Z,1.50
2023-04-26T21:59:43.741Z,1.60
2023-04-26T22:02:10.536Z,1.50
2023-04-26T22:04:37.339Z,1.55
2023-04-26T22:07:04.148Z,1.52
2023-04-26T22:09:30.930Z,1.52
2023-04-26T22:11:57.722Z,1.75
2023-04-26T22:14:24.489Z,1.67
2023-04-26T22:16:51.449Z,1.58
2023-04-26T22:19:18.218Z,1.92
2023-04-26T22:21:44.989Z,2.30
2023-04-26T22:24:11.785Z,2.20
2023-04-26T22:26:38.640Z,1.85
2023-04-26T22:29:05.487Z,2.05
2023-04-26T22:31:32.351Z,2.15
2023-04-26T22:33:59.129Z,1.90
2023-04-26T22:36:26.025Z,2.50
2023-04-26T22:38:52.945Z,2.40
2023-04-26T22:41:19.752Z,2.53
2023-04-26T22:43:46.496Z,2.50
2023-04-26T22:46:13.360Z,2.80
2023-04-26T22:48:40.236Z,2.60
2023-04-26T22:51:07.071Z,2.50
2023-04-26T22:53:33.831Z,2.50
2023-04-26T22:56:00.723Z,2.10
2023-04-26T22:58:27.441Z,2.10
2023-04-26T23:00:54.333Z,1.92
2023-04-26T23:03:21.273Z,4.20
2023-04-26T23:05:48.205Z,2.30
2023-04-26T23:08:15.040Z,2.20
2023-04-26T23:10:41.878Z,2.00
2023-04-26T23:13:09.067Z,2.10
2023-04-26T23:15:35.899Z,1.70
2023-04-26T23:18:03.204Z,1.90
2023-04-26T23:20:30.121Z,2.00
2023-04-26T23:22:56.939Z,2.05
2023-04-26T23:25:23.953Z,2.00
2023-04-26T23:27:50.911Z,1.63
2023-04-26T23:30:18.040Z,1.60
2023-04-26T23:32:44.952Z,2.13
2023-04-26T23:35:11.773Z,1.73
2023-04-26T23:37:38.606Z,2.13
2023-04-26T23:40:06.740Z,1.63
2023-04-26T23:42:33.555Z,1.90
2023-04-26T23:45:00.672Z,1.80
2023-04-26T23:47:27.527Z,2.00
2023-04-26T23:49:54.369Z,1.75
2023-04-26T23:52:21.268Z,1.80
2023-04-26T23:54:48.200Z,1.80
2023-04-26T23:57:14.959Z,1.85
2023-04-26T23:59:41.749Z,1.73
